createdAt,value
2018-08-23T00:02:15.036Z,23.50
2018-08-23T00:04:43.508Z,23.40
2018-08-23T00:07:15.563Z,23.40
2018-08-23T00:09:45.295Z,23.40
2018-08-23T00:12:13.727Z,23.30
2018-08-23T00:14:42.167Z,23.30
2018-08-23T00:17:10.639Z,23.20
2018-08-23T00:19:39.079Z,23.20
2018-08-23T00:22:07.855Z,23.20
2018-08-23T00:24:36.391Z,23.20
2018-08-23T00:27:04.894Z,23.20
2018-08-23T00:29:33.872Z,23.10
2018-08-23T00:32:09.576Z,23.10
2018-08-23T00:34:39.331Z,23.10
2018-08-23T00:37:08.459Z,23.10
2018-08-23T00:39:36.911Z,23.00
2018-08-23T00:42:11.971Z,23.00
2018-08-23T00:44:58.243Z,23.00
2018-08-23T00:47:29.111Z,22.90
2018-08-23T00:49:57.588Z,22.90
2018-08-23T00:52:39.179Z,22.80
2018-08-23T00:55:21.070Z,22.80
2018-08-23T00:57:49.547Z,22.80
2018-08-23T01:00:19.575Z,22.70
2018-08-23T01:02:49.198Z,22.70
2018-08-23T01:05:22.898Z,22.60
2018-08-23T01:07:51.635Z,22.60
2018-08-23T01:10:20.251Z,22.60
2018-08-23T01:12:58.463Z,22.60
2018-08-23T01:15:27.262Z,22.60
2018-08-23T01:18:23.504Z,22.50
2018-08-23T01:20:52.837Z,22.50
2018-08-23T01:23:21.495Z,22.40
2018-08-23T01:25:50.687Z,22.40
2018-08-23T01:28:19.167Z,22.30
2018-08-23T01:30:48.391Z,22.30
2018-08-23T01:33:18.827Z,22.30
2018-08-23T01:35:48.325Z,22.20
2018-08-23T01:38:17.203Z,22.20
2018-08-23T01:40:45.817Z,22.20
2018-08-23T01:43:14.279Z,22.10
2018-08-23T01:45:42.743Z,22.00
2018-08-23T01:48:11.739Z,22.00
2018-08-23T01:50:40.451Z,22.00
2018-08-23T01:53:08.898Z,21.90
2018-08-23T01:55:37.370Z,21.90
2018-08-23T01:58:05.959Z,21.80
2018-08-23T02:00:35.604Z,21.80
2018-08-23T02:03:04.484Z,21.80
2018-08-23T02:05:33.114Z,21.80
2018-08-23T02:08:01.607Z,21.70
2018-08-23T02:10:30.095Z,21.70
2018-08-23T02:12:59.029Z,21.80
2018-08-23T02:15:35.648Z,21.70
2018-08-23T02:18:05.098Z,21.70
2018-08-23T02:20:33.563Z,21.60
2018-08-23T02:23:04.662Z,21.60
2018-08-23T02:25:33.719Z,21.60
2018-08-23T02:28:05.347Z,21.50
2018-08-23T02:30:56.219Z,21.40
2018-08-23T02:33:25.414Z,21.40
2018-08-23T02:36:06.724Z,21.30
2018-08-23T02:38:36.063Z,21.20
2018-08-23T02:41:04.675Z,21.20
2018-08-23T02:43:33.147Z,21.10
2018-08-23T02:46:02.893Z,21.10
2018-08-23T02:48:31.379Z,21.00
2018-08-23T02:50:59.855Z,21.00
2018-08-23T02:53:34.725Z,20.90
2018-08-23T02:56:05.219Z,20.90
2018-08-23T02:58:34.419Z,20.80
2018-08-23T03:01:05.639Z,20.80
2018-08-23T03:03:34.959Z,20.70
2018-08-23T03:06:03.395Z,20.80
2018-08-23T03:08:42.307Z,20.70
2018-08-23T03:11:10.843Z,20.70
2018-08-23T03:13:43.360Z,20.80
2018-08-23T03:16:12.204Z,20.70
2018-08-23T03:18:40.656Z,20.70
2018-08-23T03:21:09.116Z,20.70
2018-08-23T03:23:37.564Z,20.70
2018-08-23T03:26:06.043Z,20.70
2018-08-23T03:28:35.843Z,20.60
2018-08-23T03:31:04.566Z,20.60
2018-08-23T03:33:34.236Z,20.60
2018-08-23T03:36:02.718Z,20.60
2018-08-23T03:38:31.167Z,20.60
2018-08-23T03:40:59.635Z,20.60
2018-08-23T03:43:28.079Z,20.60
2018-08-23T03:45:58.727Z,20.60
2018-08-23T03:48:27.356Z,20.60
2018-08-23T03:50:55.811Z,20.60
2018-08-23T03:53:38.455Z,20.60
2018-08-23T03:56:08.715Z,20.60
2018-08-23T03:58:37.235Z,20.50
2018-08-23T04:01:07.919Z,20.40
2018-08-23T04:03:38.463Z,20.30
2018-08-23T04:06:23.768Z,20.30
2018-08-23T04:08:52.235Z,20.20
2018-08-23T04:11:20.680Z,20.20
2018-08-23T04:13:49.791Z,20.20
2018-08-23T04:16:28.702Z,20.20
2018-08-23T04:18:57.516Z,20.20
2018-08-23T04:21:26.483Z,20.20
2018-08-23T04:23:54.961Z,20.10
2018-08-23T04:26:23.815Z,20.10
2018-08-23T04:28:52.292Z,20.10
2018-08-23T04:31:20.743Z,20.20
2018-08-23T04:33:49.184Z,20.20
2018-08-23T04:36:27.612Z,20.20
2018-08-23T04:39:00.612Z,20.20
2018-08-23T04:41:30.240Z,20.20
2018-08-23T04:44:02.350Z,20.10
2018-08-23T04:46:32.948Z,20.10
2018-08-23T04:49:03.352Z,20.00
2018-08-23T04:51:31.863Z,20.00
2018-08-23T04:54:00.276Z,20.10
2018-08-23T04:56:28.784Z,20.10
2018-08-23T04:58:57.232Z,20.10
2018-08-23T05:01:25.698Z,20.20
2018-08-23T05:03:54.184Z,20.10
2018-08-23T05:06:22.725Z,20.10
2018-08-23T05:08:51.531Z,20.10
2018-08-23T05:11:19.979Z,20.10
2018-08-23T05:13:48.707Z,20.10
2018-08-23T05:16:17.540Z,20.20
2018-08-23T05:18:46.124Z,20.20
2018-08-23T05:21:14.611Z,20.20
2018-08-23T05:23:43.111Z,20.10
2018-08-23T05:26:17.987Z,20.10
2018-08-23T05:29:00.011Z,20.10
2018-08-23T05:31:30.016Z,20.10
2018-08-23T05:34:00.471Z,20.00
2018-08-23T05:36:28.944Z,20.00
2018-08-23T05:38:57.410Z,20.10
2018-08-23T05:41:25.856Z,20.20
2018-08-23T05:44:06.308Z,20.20
2018-08-23T05:46:38.852Z,20.30
2018-08-23T05:49:08.024Z,20.40
2018-08-23T05:51:38.995Z,20.40
2018-08-23T05:54:07.469Z,20.40
2018-08-23T05:56:36.423Z,20.40
2018-08-23T05:59:10.276Z,20.50
2018-08-23T06:01:39.025Z,20.50
2018-08-23T06:04:07.537Z,20.50
2018-08-23T06:06:35.976Z,20.60
2018-08-23T06:09:06.107Z,20.60
2018-08-23T06:11:34.642Z,20.60
2018-08-23T06:14:03.176Z,20.60
2018-08-23T06:16:38.299Z,20.70
2018-08-23T06:19:07.000Z,20.80
2018-08-23T06:21:35.597Z,20.80
2018-08-23T06:24:06.341Z,20.90
2018-08-23T06:26:45.008Z,21.00
2018-08-23T06:29:21.135Z,21.00
2018-08-23T06:32:22.568Z,21.10
2018-08-23T06:34:52.047Z,21.10
2018-08-23T06:37:21.431Z,21.20
2018-08-23T06:39:49.908Z,21.30
2018-08-23T06:42:18.380Z,21.40
2018-08-23T06:44:50.636Z,21.40
2018-08-23T06:47:20.512Z,21.50
2018-08-23T06:49:50.128Z,21.50
2018-08-23T06:52:39.644Z,21.60
2018-08-23T06:55:12.995Z,21.70
2018-08-23T06:57:43.920Z,21.80
2018-08-23T07:00:12.994Z,21.90
2018-08-23T07:02:47.488Z,22.00
2018-08-23T07:05:15.976Z,22.10
2018-08-23T07:07:44.421Z,22.20
2018-08-23T07:10:13.391Z,22.30
2018-08-23T07:12:41.852Z,22.40
2018-08-23T07:15:10.342Z,22.50
2018-08-23T07:17:38.846Z,22.60
2018-08-23T07:20:15.847Z,22.70
2018-08-23T07:22:44.334Z,22.80
2018-08-23T07:25:15.709Z,22.90
2018-08-23T07:27:44.189Z,23.00
2018-08-23T07:30:19.894Z,23.20
2018-08-23T07:32:49.615Z,23.30
2018-08-23T07:35:19.512Z,23.50
2018-08-23T07:37:49.271Z,23.60
2018-08-23T07:40:18.942Z,23.80
2018-08-23T07:42:48.775Z,23.90
2018-08-23T07:45:17.216Z,24.00
2018-08-23T07:47:49.219Z,24.10
2018-08-23T07:50:17.675Z,24.20
2018-08-23T07:52:47.576Z,24.20
2018-08-23T07:55:15.997Z,24.20
2018-08-23T07:57:44.676Z,24.30
2018-08-23T08:00:31.844Z,24.50
2018-08-23T08:03:00.347Z,24.60
2018-08-23T08:05:34.603Z,24.70
2018-08-23T08:08:03.484Z,24.90
2018-08-23T08:10:34.542Z,25.00
2018-08-23T08:13:03.019Z,25.00
2018-08-23T08:15:31.459Z,25.10
2018-08-23T08:18:11.671Z,25.20
2018-08-23T08:20:40.162Z,25.30
2018-08-23T08:23:08.624Z,25.40
2018-08-23T08:25:37.100Z,25.60
2018-08-23T08:28:05.739Z,25.70
2018-08-23T08:30:41.836Z,25.80
2018-08-23T08:33:12.563Z,25.90
2018-08-23T08:35:43.106Z,26.10
2018-08-23T08:38:11.675Z,26.40
2018-08-23T08:40:40.143Z,26.70
2018-08-23T08:43:08.631Z,27.10
2018-08-23T08:45:37.099Z,27.40
2018-08-23T08:48:20.497Z,27.70
2018-08-23T08:51:05.751Z,27.90
2018-08-23T08:53:34.504Z,28.10
2018-08-23T08:56:02.972Z,28.30
2018-08-23T08:58:31.452Z,28.60
2018-08-23T09:00:59.904Z,28.90
2018-08-23T09:03:34.132Z,29.00
2018-08-23T09:06:04.605Z,29.10
2018-08-23T09:08:33.399Z,29.20
2018-08-23T09:11:01.910Z,29.40
2018-08-23T09:13:35.684Z,29.60
2018-08-23T09:16:07.419Z,29.60
2018-08-23T09:18:37.376Z,29.60
2018-08-23T09:21:05.836Z,29.60
2018-08-23T09:23:34.311Z,29.60
2018-08-23T09:26:02.812Z,29.50
2018-08-23T09:28:31.291Z,29.50
2018-08-23T09:30:59.740Z,29.50
2018-08-23T09:33:28.973Z,29.60
2018-08-23T09:35:57.484Z,29.60
2018-08-23T09:38:25.998Z,29.60
2018-08-23T09:40:54.440Z,29.60
2018-08-23T09:43:22.908Z,29.50
2018-08-23T09:45:52.700Z,29.40
2018-08-23T09:48:22.171Z,29.40
2018-08-23T09:50:50.668Z,29.40
2018-08-23T09:53:25.124Z,29.40
2018-08-23T09:55:55.218Z,29.30
2018-08-23T09:58:29.013Z,29.20
2018-08-23T10:01:02.853Z,29.20
2018-08-23T10:03:36.638Z,29.10
2018-08-23T10:06:10.576Z,29.00
2018-08-23T10:08:44.465Z,28.90
2018-08-23T10:11:19.966Z,28.80
2018-08-23T10:13:53.739Z,28.80
2018-08-23T10:16:27.660Z,28.80
2018-08-23T10:18:58.079Z,28.70
2018-08-23T10:21:31.811Z,28.70
2018-08-23T10:24:15.995Z,28.70
2018-08-23T10:26:44.736Z,28.80
2018-08-23T10:29:13.184Z,29.00
2018-08-23T10:31:41.663Z,29.20
2018-08-23T10:34:10.100Z,29.20
2018-08-23T10:36:38.576Z,29.30
2018-08-23T10:39:10.679Z,29.50
2018-08-23T10:41:39.192Z,29.60
2018-08-23T10:44:07.689Z,29.70
2018-08-23T10:46:41.575Z,30.00
2018-08-23T10:49:10.034Z,30.10
2018-08-23T10:51:38.495Z,30.30
2018-08-23T10:54:06.998Z,30.40
2018-08-23T10:56:35.463Z,30.50
2018-08-23T10:59:03.999Z,30.50
2018-08-23T11:01:32.427Z,30.50
2018-08-23T11:04:06.272Z,30.50
2018-08-23T11:06:35.556Z,30.60
2018-08-23T11:09:11.324Z,30.70
2018-08-23T11:11:39.824Z,31.40
2018-08-23T11:14:13.528Z,32.00
2018-08-23T11:16:47.244Z,31.90
2018-08-23T11:19:20.876Z,31.50
2018-08-23T11:21:49.320Z,31.20
2018-08-23T11:24:17.801Z,30.80
2018-08-23T11:26:46.239Z,30.50
2018-08-23T11:29:14.715Z,30.40
2018-08-23T11:31:43.168Z,30.30
2018-08-23T11:34:11.640Z,30.10
2018-08-23T11:36:40.089Z,29.90
2018-08-23T11:39:09.096Z,29.60
2018-08-23T11:41:37.536Z,29.10
2018-08-23T11:44:06.027Z,28.60
2018-08-23T11:46:34.504Z,28.30
2018-08-23T11:49:02.968Z,28.10
2018-08-23T11:51:31.427Z,28.00
2018-08-23T11:53:59.988Z,27.70
2018-08-23T11:56:28.352Z,27.60
2018-08-23T11:58:56.882Z,27.20
2018-08-23T12:01:25.335Z,27.10
2018-08-23T12:03:53.811Z,26.90
2018-08-23T12:06:22.259Z,26.80
2018-08-23T12:08:50.732Z,26.70
2018-08-23T12:11:19.200Z,26.60
2018-08-23T12:13:49.466Z,26.50
2018-08-23T12:16:18.135Z,26.50
2018-08-23T12:18:46.657Z,26.60
2018-08-23T12:21:15.095Z,26.90
2018-08-23T12:23:43.562Z,27.00
2018-08-23T12:26:12.070Z,27.10
2018-08-23T12:28:45.876Z,27.10
2018-08-23T12:31:14.320Z,27.10
2018-08-23T12:33:42.883Z,27.10
2018-08-23T12:36:11.434Z,27.00
2018-08-23T12:38:45.208Z,26.90
2018-08-23T12:41:18.928Z,26.90
2018-08-23T12:43:50.653Z,26.80
2018-08-23T12:46:19.136Z,26.90
2018-08-23T12:48:47.867Z,27.00
2018-08-23T12:51:16.395Z,27.70
2018-08-23T12:53:44.848Z,28.40
2018-08-23T12:56:13.376Z,28.80
2018-08-23T12:58:41.803Z,29.00
2018-08-23T13:01:10.267Z,29.30
2018-08-23T13:03:38.740Z,29.80
2018-08-23T13:06:07.203Z,30.10
2018-08-23T13:08:35.661Z,30.10
2018-08-23T13:11:04.169Z,30.20
2018-08-23T13:13:32.587Z,30.30
2018-08-23T13:16:01.051Z,30.20
2018-08-23T13:18:29.532Z,30.20
2018-08-23T13:20:57.983Z,30.30
2018-08-23T13:23:26.504Z,30.60
2018-08-23T13:25:55.696Z,31.90
2018-08-23T13:28:24.919Z,33.10
2018-08-23T13:30:53.716Z,32.80
2018-08-23T13:33:22.635Z,32.30
2018-08-23T13:35:51.080Z,33.30
2018-08-23T13:38:19.960Z,34.00
2018-08-23T13:40:48.647Z,34.10
2018-08-23T13:43:17.097Z,34.20
2018-08-23T13:45:45.689Z,33.40
2018-08-23T13:48:14.167Z,32.60
2018-08-23T13:50:42.636Z,31.80
2018-08-23T13:53:11.083Z,31.20
2018-08-23T13:55:39.540Z,31.30
2018-08-23T13:58:08.043Z,31.90
2018-08-23T14:00:39.925Z,32.20
2018-08-23T14:03:09.264Z,31.60
2018-08-23T14:05:38.675Z,31.40
2018-08-23T14:08:07.267Z,31.30
2018-08-23T14:10:35.935Z,31.50
2018-08-23T14:13:04.869Z,32.00
2018-08-23T14:15:38.588Z,32.40
2018-08-23T14:18:07.096Z,32.80
2018-08-23T14:20:35.567Z,33.40
2018-08-23T14:23:04.166Z,34.20
2018-08-23T14:25:32.618Z,34.80
2018-08-23T14:28:01.080Z,35.10
2018-08-23T14:30:29.529Z,34.90
2018-08-23T14:32:58.072Z,34.50
2018-08-23T14:35:26.483Z,34.20
2018-08-23T14:37:54.924Z,34.20
2018-08-23T14:40:23.461Z,34.00
2018-08-23T14:42:52.031Z,33.50
2018-08-23T14:45:25.854Z,33.20
2018-08-23T14:47:59.764Z,32.80
2018-08-23T14:50:28.223Z,32.60
2018-08-23T14:52:56.737Z,32.20
2018-08-23T14:55:30.427Z,32.00
2018-08-23T14:57:58.879Z,31.60
2018-08-23T15:00:27.384Z,31.30
2018-08-23T15:02:55.848Z,31.10
2018-08-23T15:05:24.304Z,31.00
2018-08-23T15:07:52.776Z,31.00
2018-08-23T15:10:21.227Z,31.00
2018-08-23T15:12:49.691Z,31.00
2018-08-23T15:15:18.226Z,31.10
2018-08-23T15:17:46.667Z,30.90
2018-08-23T15:20:15.131Z,30.90
2018-08-23T15:22:43.571Z,30.90
2018-08-23T15:25:12.064Z,31.00
2018-08-23T15:27:40.515Z,31.00
2018-08-23T15:30:09.035Z,30.80
2018-08-23T15:32:37.480Z,30.80
2018-08-23T15:35:06.599Z,30.70
2018-08-23T15:37:35.102Z,30.60
2018-08-23T15:40:03.576Z,30.50
2018-08-23T15:42:32.092Z,30.50
2018-08-23T15:45:00.575Z,30.60
2018-08-23T15:47:29.064Z,30.60
2018-08-23T15:49:57.508Z,30.60
2018-08-23T15:52:25.988Z,30.50
2018-08-23T15:54:54.507Z,30.40
2018-08-23T15:57:22.911Z,30.30
2018-08-23T15:59:51.365Z,30.10
2018-08-23T16:02:19.827Z,30.10
2018-08-23T16:04:48.295Z,30.10
2018-08-23T16:07:16.752Z,30.00
2018-08-23T16:09:45.227Z,30.00
2018-08-23T16:12:13.665Z,30.00
2018-08-23T16:14:42.148Z,30.00
2018-08-23T16:17:15.924Z,29.90
2018-08-23T16:19:49.584Z,30.00
2018-08-23T16:22:18.027Z,29.90
2018-08-23T16:24:46.506Z,29.80
2018-08-23T16:27:14.969Z,29.80
2018-08-23T16:29:50.009Z,29.70
2018-08-23T16:32:24.156Z,29.70
2018-08-23T16:34:53.056Z,29.70
2018-08-23T16:37:21.544Z,29.60
2018-08-23T16:39:50.053Z,29.60
2018-08-23T16:42:18.524Z,29.70
2018-08-23T16:44:47.823Z,29.80
2018-08-23T16:47:16.304Z,29.90
2018-08-23T16:49:44.787Z,29.90
2018-08-23T16:52:13.251Z,29.90
2018-08-23T16:54:41.728Z,29.90
2018-08-23T16:57:10.212Z,30.00
2018-08-23T16:59:38.650Z,29.90
2018-08-23T17:02:07.180Z,29.80
2018-08-23T17:04:40.911Z,29.80
2018-08-23T17:07:09.375Z,29.80
2018-08-23T17:09:37.831Z,29.90
2018-08-23T17:12:06.459Z,29.90
2018-08-23T17:14:34.948Z,30.00
2018-08-23T17:17:08.736Z,30.00
2018-08-23T17:19:37.236Z,29.90
2018-08-23T17:22:05.741Z,29.70
2018-08-23T17:24:34.253Z,29.70
2018-08-23T17:27:02.728Z,29.50
2018-08-23T17:29:31.404Z,29.40
2018-08-23T17:31:59.936Z,29.40
2018-08-23T17:34:28.404Z,29.30
2018-08-23T17:36:56.892Z,29.30
2018-08-23T17:39:25.328Z,29.20
2018-08-23T17:41:53.854Z,29.10
2018-08-23T17:44:22.328Z,29.00
2018-08-23T17:46:50.992Z,28.90
2018-08-23T17:49:19.495Z,28.80
2018-08-23T17:51:47.946Z,28.70
2018-08-23T17:54:16.418Z,28.70
2018-08-23T17:56:44.879Z,28.60
2018-08-23T17:59:13.394Z,28.50
2018-08-23T18:01:41.879Z,28.40
2018-08-23T18:04:10.330Z,28.40
2018-08-23T18:06:38.945Z,28.30
2018-08-23T18:09:10.391Z,28.20
2018-08-23T18:11:38.863Z,28.20
2018-08-23T18:14:07.653Z,28.10
2018-08-23T18:16:41.600Z,28.00
2018-08-23T18:19:10.250Z,28.00
2018-08-23T18:21:39.475Z,27.90
2018-08-23T18:24:07.952Z,27.80
2018-08-23T18:26:36.644Z,27.70
2018-08-23T18:29:05.233Z,27.70
2018-08-23T18:31:34.404Z,27.70
2018-08-23T18:34:03.115Z,27.70
2018-08-23T18:36:31.656Z,27.70
2018-08-23T18:39:00.163Z,27.60
2018-08-23T18:41:28.607Z,27.60
2018-08-23T18:43:57.075Z,27.50
2018-08-23T18:46:25.536Z,27.40
2018-08-23T18:48:57.597Z,27.40
2018-08-23T18:51:27.184Z,27.30
2018-08-23T18:53:56.358Z,27.30
2018-08-23T18:56:24.776Z,27.30
2018-08-23T18:58:53.581Z,27.20
2018-08-23T19:01:22.277Z,27.10
2018-08-23T19:03:50.719Z,27.00
2018-08-23T19:06:19.184Z,27.00
2018-08-23T19:08:47.891Z,26.90
2018-08-23T19:11:16.361Z,26.90
2018-08-23T19:13:44.799Z,26.80
2018-08-23T19:16:18.507Z,26.70
2018-08-23T19:18:46.956Z,26.60
2018-08-23T19:21:15.436Z,26.50
2018-08-23T19:23:43.875Z,26.50
2018-08-23T19:26:12.380Z,26.40
2018-08-23T19:28:40.820Z,26.50
2018-08-23T19:31:09.281Z,26.40
2018-08-23T19:33:37.739Z,26.30
2018-08-23T19:36:06.203Z,26.20
2018-08-23T19:38:34.695Z,26.10
2018-08-23T19:41:03.153Z,26.00
2018-08-23T19:43:31.632Z,25.90
2018-08-23T19:46:05.409Z,25.90
2018-08-23T19:48:34.095Z,25.90
2018-08-23T19:51:02.546Z,25.80
2018-08-23T19:53:30.984Z,25.80
2018-08-23T19:55:59.483Z,25.80
2018-08-23T19:58:27.932Z,25.80
2018-08-23T20:00:56.416Z,25.80
2018-08-23T20:03:24.860Z,25.80
2018-08-23T20:05:53.332Z,25.80
2018-08-23T20:08:21.775Z,25.80
2018-08-23T20:10:50.259Z,25.80
2018-08-23T20:13:18.700Z,25.80
2018-08-23T20:15:47.179Z,25.80
2018-08-23T20:18:15.655Z,25.80
2018-08-23T20:20:44.104Z,25.80
2018-08-23T20:23:12.578Z,25.80
2018-08-23T20:25:41.015Z,25.70
2018-08-23T20:28:09.488Z,25.70
2018-08-23T20:30:37.943Z,25.60
2018-08-23T20:33:06.423Z,25.60
2018-08-23T20:35:34.892Z,25.60
2018-08-23T20:38:03.360Z,25.60
2018-08-23T20:40:31.796Z,25.50
2018-08-23T20:43:00.264Z,25.50
2018-08-23T20:45:28.739Z,25.30
2018-08-23T20:47:57.183Z,25.20
2018-08-23T20:50:25.644Z,25.20
2018-08-23T20:52:54.099Z,25.10
2018-08-23T20:55:22.565Z,25.00
2018-08-23T20:57:50.995Z,24.90
2018-08-23T21:00:19.464Z,24.60
2018-08-23T21:02:47.904Z,24.50
2018-08-23T21:05:16.379Z,24.30
2018-08-23T21:07:44.830Z,24.10
2018-08-23T21:10:13.259Z,24.00
2018-08-23T21:12:41.722Z,23.90
2018-08-23T21:15:10.179Z,23.80
2018-08-23T21:17:38.679Z,23.70
2018-08-23T21:20:07.135Z,23.70
2018-08-23T21:22:35.596Z,23.70
2018-08-23T21:25:04.084Z,23.70
2018-08-23T21:27:32.555Z,23.70
2018-08-23T21:30:01.007Z,23.70
2018-08-23T21:32:29.474Z,23.70
2018-08-23T21:34:57.932Z,23.70
2018-08-23T21:37:26.380Z,23.70
2018-08-23T21:39:54.851Z,23.80
2018-08-23T21:42:23.318Z,23.70
2018-08-23T21:44:51.772Z,23.70
2018-08-23T21:47:20.219Z,23.70
2018-08-23T21:49:48.680Z,23.70
2018-08-23T21:52:17.123Z,23.60
2018-08-23T21:54:45.616Z,23.60
2018-08-23T21:57:14.076Z,23.50
2018-08-23T21:59:42.522Z,23.50
2018-08-23T22:02:16.335Z,23.40
2018-08-23T22:04:50.059Z,23.40
2018-08-23T22:07:18.529Z,23.40
2018-08-23T22:09:51.308Z,23.40
2018-08-23T22:12:21.139Z,23.40
2018-08-23T22:14:50.320Z,23.40
2018-08-23T22:17:19.577Z,23.40
2018-08-23T22:19:48.303Z,23.40
2018-08-23T22:22:16.776Z,23.40
2018-08-23T22:24:45.219Z,23.30
2018-08-23T22:27:13.688Z,23.30
2018-08-23T22:29:42.223Z,23.20
2018-08-23T22:32:10.683Z,23.10
2018-08-23T22:34:39.142Z,23.00
2018-08-23T22:37:07.611Z,22.80
2018-08-23T22:39:36.141Z,22.80
2018-08-23T22:42:04.573Z,22.70
2018-08-23T22:44:33.045Z,22.70
2018-08-23T22:47:01.500Z,22.60
2018-08-23T22:49:29.960Z,22.60
2018-08-23T22:51:58.407Z,22.50
2018-08-23T22:54:26.904Z,22.30
2018-08-23T22:56:55.351Z,22.20
2018-08-23T22:59:23.811Z,22.20
2018-08-23T23:01:52.268Z,22.10
2018-08-23T23:04:27.549Z,22.10
2018-08-23T23:06:56.779Z,22.00
2018-08-23T23:09:25.251Z,22.00
2018-08-23T23:11:53.740Z,22.00
2018-08-23T23:14:22.289Z,21.90
2018-08-23T23:16:54.420Z,21.80
2018-08-23T23:19:23.215Z,21.80
2018-08-23T23:21:51.663Z,21.70
2018-08-23T23:24:25.615Z,21.70
2018-08-23T23:26:54.783Z,21.70
2018-08-23T23:29:23.500Z,21.50
2018-08-23T23:31:51.951Z,21.50
2018-08-23T23:34:20.419Z,21.40
2018-08-23T23:36:48.887Z,21.30
2018-08-23T23:39:17.331Z,21.10
2018-08-23T23:41:45.812Z,20.90
2018-08-23T23:44:14.255Z,20.90
2018-08-23T23:46:42.751Z,20.90
2018-08-23T23:49:11.186Z,20.90
2018-08-23T23:51:39.948Z,20.90
2018-08-23T23:54:08.775Z,21.00
2018-08-23T23:56:37.264Z,21.10
2018-08-23T23:59:05.980Z,21.20
